Time;durP1;ratioP1;P1;durP2;ratioP2;P2;SDS_P1;SDS_P2;PMS_P1;PMS_P2;Temp;Humidity;BMP_temperature;BMP_pressure;BME280_temperature;BME280_humidity;BME280_pressure;Samples;Min_cycle;Max_cycle;Signal;HPM_P1;HPM_P2
2021/03/09 00:02:02;;;;;;;2.20;1.50;;;3.60;99.90;;;;;;5060873;28;21016;-57
2021/03/09 00:04:29;;;;;;;2.70;1.60;;;3.60;99.90;;;;;;5068346;28;20559;-57
2021/03/09 00:06:56;;;;;;;2.03;1.30;;;3.60;99.90;;;;;;5057557;28;20528;-58
2021/03/09 00:09:24;;;;;;;2.53;1.70;;;3.60;99.90;;;;;;5051363;28;20559;-57
2021/03/09 00:11:51;;;;;;;2.43;1.33;;;3.60;99.90;;;;;;5039007;28;20490;-58
2021/03/09 00:14:18;;;;;;;2.00;1.30;;;3.70;99.90;;;;;;5032320;28;20496;-56
2021/03/09 00:16:47;;;;;;;2.33;1.20;;;3.70;99.90;;;;;;5039656;28;20532;-57
2021/03/09 00:19:14;;;;;;;2.00;1.40;;;3.60;99.90;;;;;;5032550;28;20967;-58
2021/03/09 00:21:42;;;;;;;3.43;1.60;;;3.60;99.90;;;;;;5028495;28;20499;-58
2021/03/09 00:24:09;;;;;;;2.90;1.60;;;3.60;99.90;;;;;;5028118;28;20607;-57
2021/03/09 00:26:37;;;;;;;2.67;1.53;;;3.60;99.90;;;;;;5028080;28;20564;-57
2021/03/09 00:29:04;;;;;;;2.20;1.50;;;3.60;99.90;;;;;;5033146;28;20486;-57
2021/03/09 00:31:31;;;;;;;2.40;1.27;;;3.60;99.90;;;;;;5037451;28;20899;-58
2021/03/09 00:33:59;;;;;;;1.77;1.10;;;3.60;99.90;;;;;;5029155;28;20484;-58
2021/03/09 00:36:27;;;;;;;3.47;1.50;;;3.80;99.90;;;;;;5046622;28;20999;-57
2021/03/09 00:38:54;;;;;;;2.50;1.30;;;3.80;99.90;;;;;;5047942;28;21043;-55
2021/03/09 00:41:21;;;;;;;2.40;1.50;;;3.70;99.90;;;;;;5048450;28;20485;-58
2021/03/09 00:43:49;;;;;;;3.27;1.83;;;3.80;99.90;;;;;;5047743;28;20501;-54
2021/03/09 00:46:16;;;;;;;3.60;1.57;;;3.80;99.90;;;;;;5043923;28;20938;-57
2021/03/09 00:49:10;;;;;;;2.50;1.60;;;3.90;99.90;;;;;;5053597;28;20480;-54
2021/03/09 00:51:37;;;;;;;3.17;1.90;;;3.80;99.90;;;;;;5067467;28;21168;-57
2021/03/09 00:54:05;;;;;;;3.03;1.67;;;3.80;99.90;;;;;;5067516;28;20480;-58
2021/03/09 00:56:32;;;;;;;2.63;1.70;;;3.70;99.90;;;;;;5062558;28;20560;-56
2021/03/09 00:59:00;;;;;;;3.93;1.80;;;3.80;99.90;;;;;;5059174;28;20507;-57
2021/03/09 01:01:27;;;;;;;3.43;1.80;;;3.70;99.90;;;;;;5059732;28;20516;-54
2021/03/09 01:03:54;;;;;;;2.50;1.57;;;3.60;99.90;;;;;;5054989;28;20474;-58
2021/03/09 01:06:23;;;;;;;3.53;1.77;;;3.60;99.90;;;;;;5038845;28;20254;-56
2021/03/09 01:08:50;;;;;;;2.13;1.53;;;3.60;99.90;;;;;;5032526;28;20977;-55
2021/03/09 01:11:18;;;;;;;2.20;1.60;;;3.60;99.90;;;;;;5034659;28;20505;-56
2021/03/09 01:13:45;;;;;;;2.30;1.40;;;3.60;99.90;;;;;;5032923;28;20506;-58
2021/03/09 01:16:13;;;;;;;2.13;1.50;;;3.70;99.90;;;;;;5047163;28;20556;-58
2021/03/09 01:18:40;;;;;;;2.03;1.70;;;3.90;99.90;;;;;;5047361;28;20489;-57
2021/03/09 01:21:08;;;;;;;3.03;1.70;;;3.80;99.90;;;;;;5046907;28;20560;-56
2021/03/09 01:23:36;;;;;;;2.27;1.53;;;3.80;99.90;;;;;;5047417;28;20544;-58
2021/03/09 01:26:03;;;;;;;2.77;1.57;;;3.80;99.90;;;;;;5042767;28;21008;-57
2021/03/09 01:28:30;;;;;;;2.80;1.60;;;3.70;99.90;;;;;;5037115;28;20941;-56
2021/03/09 01:30:58;;;;;;;2.47;1.23;;;3.70;99.90;;;;;;5019118;28;20464;-55
2021/03/09 01:33:25;;;;;;;2.30;1.57;;;3.70;99.90;;;;;;5016167;28;20844;-55
2021/03/09 01:35:52;;;;;;;2.93;1.77;;;3.60;99.90;;;;;;5012594;28;20595;-57
2021/03/09 01:38:20;;;;;;;1.97;1.30;;;3.60;99.90;;;;;;5007212;28;20479;-56
2021/03/09 01:40:48;;;;;;;1.90;1.60;;;3.60;99.90;;;;;;5007470;28;20522;-57
2021/03/09 01:43:16;;;;;;;4.53;1.63;;;3.50;99.90;;;;;;5007547;28;20569;-57
2021/03/09 01:45:43;;;;;;;2.80;1.50;;;3.60;99.90;;;;;;5006934;28;20342;-55
2021/03/09 01:48:20;;;;;;;2.47;1.33;;;3.60;99.90;;;;;;5023468;28;20492;-54
2021/03/09 01:50:50;;;;;;;2.83;1.40;;;3.50;99.90;;;;;;5028166;28;20527;-57
2021/03/09 01:53:18;;;;;;;3.83;1.50;;;3.50;99.90;;;;;;5047054;28;20583;-58
2021/03/09 01:55:45;;;;;;;4.00;1.50;;;3.50;99.90;;;;;;5034583;28;20537;-57
2021/03/09 01:58:15;;;;;;;3.53;1.33;;;3.70;99.90;;;;;;5026871;28;20487;-57
2021/03/09 02:00:42;;;;;;;2.43;1.53;;;3.70;99.90;;;;;;5026896;28;21019;-58
2021/03/09 02:03:10;;;;;;;3.43;1.50;;;3.60;99.90;;;;;;5035579;28;20581;-57
2021/03/09 02:05:37;;;;;;;2.17;1.30;;;3.60;99.90;;;;;;5035885;28;20485;-57
2021/03/09 02:08:06;;;;;;;3.20;1.40;;;3.60;99.90;;;;;;5041744;28;20929;-57
2021/03/09 02:10:35;;;;;;;2.40;1.50;;;3.60;99.90;;;;;;5033815;28;20478;-57
2021/03/09 02:13:15;;;;;;;3.37;1.60;;;3.50;99.90;;;;;;5047399;28;20511;-56
2021/03/09 02:15:55;;;;;;;2.90;1.40;;;3.60;99.90;;;;;;5050401;28;20485;-57
2021/03/09 02:18:37;;;;;;;4.00;1.60;;;3.50;99.90;;;;;;5050836;28;20553;-57
2021/03/09 02:21:42;;;;;;;2.70;1.60;;;3.50;99.90;;;;;;5046718;28;20489;-58
2021/03/09 02:25:08;;;;;;;2.07;1.20;;;3.50;99.90;;;;;;5032110;28;20584;-54
2021/03/09 02:27:47;;;;;;;4.00;1.40;;;3.60;99.90;;;;;;4992656;28;20496;-57
2021/03/09 02:30:22;;;;;;;2.20;1.20;;;3.50;99.90;;;;;;5005538;28;20506;-56
2021/03/09 02:32:57;;;;;;;2.00;1.37;;;3.60;99.90;;;;;;5021271;28;20534;-56
2021/03/09 02:35:30;;;;;;;2.07;1.20;;;3.50;99.90;;;;;;5030722;28;20481;-57
2021/03/09 02:38:02;;;;;;;1.90;1.20;;;3.50;99.90;;;;;;5050310;28;20529;-56
2021/03/09 02:40:31;;;;;;;1.87;1.10;;;3.70;99.90;;;;;;5050126;28;20512;-57
2021/03/09 02:43:06;;;;;;;2.00;1.30;;;3.50;99.90;;;;;;5049194;28;20482;-53
2021/03/09 02:45:34;;;;;;;1.97;1.40;;;3.50;99.90;;;;;;5048946;28;21048;-57
2021/03/09 02:48:04;;;;;;;4.97;1.93;;;3.40;99.90;;;;;;5057585;28;20544;-54
2021/03/09 02:50:33;;;;;;;2.03;1.40;;;3.30;99.90;;;;;;5054242;28;20847;-57
2021/03/09 02:53:07;;;;;;;2.00;1.47;;;3.30;99.90;;;;;;5063526;28;20480;-56
2021/03/09 02:55:36;;;;;;;3.80;2.00;;;3.30;99.90;;;;;;5049066;28;20474;-57
2021/03/09 02:58:08;;;;;;;3.03;1.87;;;3.20;99.90;;;;;;5050133;28;20883;-57
2021/03/09 03:00:37;;;;;;;2.83;2.03;;;3.10;99.90;;;;;;5049643;28;20986;-56
2021/03/09 03:03:08;;;;;;;3.17;2.07;;;3.00;99.90;;;;;;5036102;28;20794;-57
2021/03/09 03:05:40;;;;;;;2.60;1.93;;;3.00;99.90;;;;;;5042122;28;20829;-58
2021/03/09 03:08:10;;;;;;;4.30;2.10;;;3.00;99.90;;;;;;5038813;28;21056;-58
2021/03/09 03:10:40;;;;;;;3.17;2.00;;;2.90;99.90;;;;;;5042838;28;21000;-58
2021/03/09 03:13:09;;;;;;;3.77;2.17;;;2.90;99.90;;;;;;5049480;28;20901;-56
2021/03/09 03:15:39;;;;;;;3.90;2.50;;;2.90;99.90;;;;;;5029603;28;20528;-57
2021/03/09 03:18:12;;;;;;;4.00;2.27;;;2.90;99.90;;;;;;5029684;28;20881;-57
2021/03/09 03:20:41;;;;;;;5.80;2.87;;;2.90;99.90;;;;;;5029395;28;20851;-58
2021/03/09 03:23:10;;;;;;;6.67;2.83;;;2.90;99.90;;;;;;5040043;28;20573;-58
2021/03/09 03:25:38;;;;;;;4.17;3.30;;;2.80;99.90;;;;;;5042895;28;20502;-57
2021/03/09 03:28:09;;;;;;;4.27;2.60;;;2.80;99.90;;;;;;5041300;28;20481;-58
2021/03/09 03:30:38;;;;;;;4.97;2.77;;;2.80;99.90;;;;;;5029647;28;20521;-55
2021/03/09 03:33:06;;;;;;;6.07;2.70;;;2.80;99.90;;;;;;5046071;28;20567;-58
2021/03/09 03:35:34;;;;;;;5.37;3.20;;;2.80;99.90;;;;;;5061150;28;20986;-56
2021/03/09 03:38:02;;;;;;;4.07;3.13;;;2.90;99.90;;;;;;5069308;28;21189;-58
2021/03/09 03:40:30;;;;;;;6.03;3.00;;;2.90;99.90;;;;;;5069339;28;20479;-54
2021/03/09 03:42:58;;;;;;;3.70;2.80;;;2.80;99.90;;;;;;5052081;28;20483;-57
2021/03/09 03:45:26;;;;;;;6.00;2.67;;;2.80;99.90;;;;;;5048732;28;20502;-57
2021/03/09 03:48:00;;;;;;;4.87;3.17;;;2.80;99.90;;;;;;5049440;28;20540;-54
2021/03/09 03:50:31;;;;;;;5.80;3.23;;;2.80;99.90;;;;;;5049104;28;20588;-55
2021/03/09 03:53:07;;;;;;;7.27;3.33;;;2.80;99.90;;;;;;5050287;28;20894;-58
2021/03/09 03:55:50;;;;;;;4.20;3.40;;;2.70;99.90;;;;;;5028058;28;20575;-57
2021/03/09 03:58:25;;;;;;;5.30;3.50;;;2.70;99.90;;;;;;5028643;28;20554;-56
2021/03/09 04:00:54;;;;;;;5.70;3.47;;;2.70;99.90;;;;;;5037648;28;20534;-56
2021/03/09 04:03:23;;;;;;;5.40;3.50;;;2.70;99.90;;;;;;5042199;28;20481;-55
2021/03/09 04:05:53;;;;;;;6.43;3.50;;;2.70;99.90;;;;;;5039531;28;20782;-54
2021/03/09 04:08:22;;;;;;;6.47;4.00;;;2.70;99.90;;;;;;5047976;28;20478;-58
2021/03/09 04:10:52;;;;;;;5.67;3.90;;;2.70;99.90;;;;;;5048646;28;20470;-54
2021/03/09 04:13:20;;;;;;;6.13;4.07;;;2.70;99.90;;;;;;5050467;28;20484;-54
2021/03/09 04:15:48;;;;;;;5.07;3.83;;;2.60;99.90;;;;;;5062016;28;20489;-53
2021/03/09 04:18:20;;;;;;;7.27;3.90;;;2.60;99.90;;;;;;5043067;28;20539;-55
2021/03/09 04:20:49;;;;;;;7.27;4.37;;;2.60;99.90;;;;;;5038447;28;20486;-55
2021/03/09 04:23:17;;;;;;;4.80;4.00;;;2.60;99.90;;;;;;5036892;28;21086;-58
2021/03/09 04:25:45;;;;;;;6.90;3.90;;;2.60;99.90;;;;;;5048462;28;20497;-56
2021/03/09 04:28:14;;;;;;;7.67;3.77;;;2.60;99.90;;;;;;5044916;28;20514;-56
2021/03/09 04:30:42;;;;;;;6.30;4.07;;;2.60;99.90;;;;;;5048251;28;20544;-57
2021/03/09 04:33:10;;;;;;;5.13;3.63;;;2.60;99.90;;;;;;5051045;28;20537;-55
2021/03/09 04:35:38;;;;;;;5.93;4.13;;;2.60;99.90;;;;;;5060867;28;20483;-56
2021/03/09 04:38:06;;;;;;;7.03;4.43;;;2.60;99.90;;;;;;5068554;28;20487;-56
2021/03/09 04:40:35;;;;;;;5.47;4.10;;;2.60;99.90;;;;;;5051362;28;20535;-57
2021/03/09 04:43:04;;;;;;;7.20;4.27;;;2.60;99.90;;;;;;5048553;28;20890;-54
2021/03/09 04:45:32;;;;;;;8.90;5.03;;;2.60;99.90;;;;;;5048001;28;20486;-58
2021/03/09 04:48:01;;;;;;;7.60;5.23;;;2.50;99.90;;;;;;5047979;28;20535;-57
2021/03/09 04:50:29;;;;;;;11.20;5.80;;;2.50;99.90;;;;;;5058319;28;20489;-57
2021/03/09 04:52:58;;;;;;;9.27;5.90;;;2.50;99.90;;;;;;5053372;28;20521;-56
2021/03/09 04:55:27;;;;;;;11.10;7.30;;;2.50;99.90;;;;;;5058314;28;20570;-56
2021/03/09 04:57:55;;;;;;;8.77;6.23;;;2.50;99.90;;;;;;5038513;28;20533;-57
2021/03/09 05:00:25;;;;;;;12.57;6.93;;;2.50;99.90;;;;;;5032081;28;20483;-57
2021/03/09 05:02:53;;;;;;;10.23;6.67;;;2.40;99.90;;;;;;5033243;28;20651;-57
2021/03/09 05:05:23;;;;;;;9.87;6.90;;;2.40;99.90;;;;;;5036754;28;20500;-57
2021/03/09 05:07:52;;;;;;;10.63;6.70;;;2.40;99.90;;;;;;5046650;28;20849;-55
2021/03/09 05:10:20;;;;;;;12.13;8.60;;;2.40;99.90;;;;;;5045289;28;21013;-57
2021/03/09 05:12:50;;;;;;;14.13;8.67;;;2.40;99.90;;;;;;5044167;28;20476;-56
2021/03/09 05:15:19;;;;;;;9.03;7.43;;;2.40;99.90;;;;;;5047573;28;20478;-57
2021/03/09 05:17:47;;;;;;;10.27;7.27;;;2.40;99.90;;;;;;5041233;28;20498;-55
2021/03/09 05:20:19;;;;;;;7.57;5.40;;;2.40;99.90;;;;;;5034120;28;21062;-58
2021/03/09 05:22:46;;;;;;;7.70;5.40;;;2.30;99.90;;;;;;5033998;28;20739;-53
2021/03/09 05:25:16;;;;;;;8.63;5.07;;;2.30;99.90;;;;;;5059416;28;20505;-57
2021/03/09 05:27:52;;;;;;;6.83;5.17;;;2.30;99.90;;;;;;5046184;28;20532;-55
2021/03/09 05:30:24;;;;;;;8.13;5.67;;;2.20;99.90;;;;;;5046401;28;20502;-58
2021/03/09 05:32:52;;;;;;;7.80;5.30;;;2.20;99.90;;;;;;5043215;28;20544;-57
2021/03/09 05:35:21;;;;;;;7.63;5.00;;;2.20;99.90;;;;;;5043406;28;20483;-56
2021/03/09 05:37:49;;;;;;;8.73;5.10;;;2.20;99.90;;;;;;5043953;28;20584;-56
2021/03/09 05:40:18;;;;;;;7.17;5.07;;;2.20;99.90;;;;;;5048107;28;20483;-53
2021/03/09 05:42:53;;;;;;;7.43;4.90;;;2.10;99.90;;;;;;5047323;28;20504;-56
2021/03/09 05:45:45;;;;;;;7.73;5.40;;;2.10;99.90;;;;;;5049458;28;20491;-56
2021/03/09 05:48:14;;;;;;;7.87;5.10;;;2.00;99.90;;;;;;5032233;28;20957;-58
2021/03/09 05:50:41;;;;;;;7.63;4.93;;;2.00;99.90;;;;;;5038717;28;20490;-56
2021/03/09 05:53:09;;;;;;;10.33;5.80;;;2.00;99.90;;;;;;5045400;28;20530;-56
2021/03/09 05:55:36;;;;;;;8.57;4.90;;;2.10;99.90;;;;;;5045925;28;20531;-58
2021/03/09 05:58:05;;;;;;;7.93;5.27;;;2.00;99.90;;;;;;5047743;28;20470;-56
2021/03/09 06:00:33;;;;;;;6.30;5.30;;;2.00;99.90;;;;;;5044891;28;20486;-57
2021/03/09 06:03:01;;;;;;;8.70;6.10;;;2.00;99.90;;;;;;5042937;28;20958;-56
2021/03/09 06:05:29;;;;;;;9.90;5.77;;;1.90;99.90;;;;;;5022116;28;21053;-56
2021/03/09 06:07:56;;;;;;;9.00;5.30;;;1.90;99.90;;;;;;5029526;28;20478;-53
2021/03/09 06:10:25;;;;;;;7.43;5.17;;;1.90;99.90;;;;;;5019517;28;20553;-56
2021/03/09 06:12:53;;;;;;;9.53;5.30;;;1.90;99.90;;;;;;5014339;28;20480;-56
2021/03/09 06:15:21;;;;;;;8.13;5.80;;;1.90;99.90;;;;;;5026093;28;20533;-57
2021/03/09 06:17:56;;;;;;;8.83;6.07;;;1.90;99.90;;;;;;5030789;28;20476;-57
2021/03/09 06:20:30;;;;;;;9.57;6.40;;;2.00;99.90;;;;;;5033075;28;21352;-59
2021/03/09 06:22:59;;;;;;;7.60;5.90;;;1.90;99.90;;;;;;5026621;28;20554;-59
2021/03/09 06:25:31;;;;;;;9.67;5.87;;;1.90;99.90;;;;;;5026504;28;20487;-58
2021/03/09 06:28:02;;;;;;;9.37;6.43;;;1.80;99.90;;;;;;5031467;28;20534;-58
2021/03/09 06:30:33;;;;;;;7.73;5.67;;;1.80;99.90;;;;;;5030590;28;20514;-58
2021/03/09 06:33:01;;;;;;;8.57;6.17;;;1.90;99.90;;;;;;5045268;28;21705;-58
2021/03/09 06:35:36;;;;;;;8.70;6.13;;;1.90;99.90;;;;;;5055592;28;20482;-59
2021/03/09 06:38:21;;;;;;;9.13;6.17;;;1.90;99.90;;;;;;5037502;28;20467;-58
2021/03/09 06:41:16;;;;;;;12.27;7.47;;;1.90;99.90;;;;;;5029624;28;20512;-59
2021/03/09 06:43:46;;;;;;;8.43;6.63;;;1.90;99.90;;;;;;5030510;28;20491;-58
2021/03/09 06:46:20;;;;;;;9.67;6.07;;;1.90;99.90;;;;;;5030830;28;20480;-59
2021/03/09 06:48:55;;;;;;;8.00;5.97;;;1.90;99.90;;;;;;5031142;28;20560;-58
2021/03/09 06:51:28;;;;;;;8.97;6.27;;;1.80;99.90;;;;;;5038437;28;20546;-58
2021/03/09 06:54:05;;;;;;;10.20;6.23;;;1.80;99.90;;;;;;5047557;28;20498;-57
2021/03/09 06:56:35;;;;;;;7.53;5.57;;;1.70;99.90;;;;;;5040748;28;20988;-59
2021/03/09 06:59:21;;;;;;;7.50;5.80;;;1.70;99.90;;;;;;5049077;28;20474;-58
2021/03/09 07:02:10;;;;;;;8.17;5.70;;;1.70;99.90;;;;;;5029666;28;20475;-57
2021/03/09 07:04:40;;;;;;;7.10;5.90;;;1.70;99.90;;;;;;5016875;28;20507;-58
2021/03/09 07:07:09;;;;;;;7.30;5.50;;;1.70;99.90;;;;;;5029341;28;20984;-58
2021/03/09 07:09:39;;;;;;;9.30;6.20;;;1.80;99.90;;;;;;5033146;28;21095;-58
2021/03/09 07:12:11;;;;;;;8.13;5.57;;;1.80;99.90;;;;;;5031647;28;20480;-59
2021/03/09 07:14:41;;;;;;;7.33;5.83;;;1.70;99.90;;;;;;5018660;28;20507;-58
2021/03/09 07:17:10;;;;;;;8.73;6.43;;;1.70;99.90;;;;;;5026892;28;21082;-58
2021/03/09 07:19:41;;;;;;;8.40;5.83;;;1.80;99.90;;;;;;5028284;28;20539;-56
2021/03/09 07:22:17;;;;;;;9.03;6.10;;;1.80;99.90;;;;;;5029930;28;20477;-58
2021/03/09 07:24:59;;;;;;;13.67;7.73;;;1.80;99.90;;;;;;5028467;28;20476;-58
2021/03/09 07:27:33;;;;;;;16.60;9.10;;;1.80;99.90;;;;;;5026768;28;20892;-59
2021/03/09 07:30:03;;;;;;;11.03;7.27;;;1.80;99.90;;;;;;5049210;28;20559;-58
2021/03/09 07:32:31;;;;;;;9.90;6.53;;;1.80;99.90;;;;;;5046678;28;20506;-57
2021/03/09 07:35:01;;;;;;;9.47;6.53;;;1.80;99.90;;;;;;5064445;28;20554;-59
2021/03/09 07:37:28;;;;;;;8.30;6.20;;;1.70;99.90;;;;;;5028786;28;20491;-58
2021/03/09 07:39:58;;;;;;;10.13;5.83;;;1.70;99.90;;;;;;5031729;28;20533;-56
2021/03/09 07:42:25;;;;;;;7.57;6.07;;;1.70;99.90;;;;;;5029208;28;20573;-58
2021/03/09 07:44:53;;;;;;;8.87;7.13;;;1.80;99.90;;;;;;5026950;28;20524;-58
2021/03/09 07:47:21;;;;;;;10.27;6.47;;;1.80;99.90;;;;;;5009812;28;20508;-58
2021/03/09 07:49:50;;;;;;;9.87;6.10;;;1.80;99.90;;;;;;5024259;28;20949;-57
2021/03/09 07:52:21;;;;;;;8.97;6.03;;;1.80;99.90;;;;;;5035394;28;20503;-58
2021/03/09 07:55:27;;;;;;;9.50;6.20;;;1.90;99.90;;;;;;5035160;28;20495;-58
2021/03/09 07:58:19;;;;;;;8.53;5.87;;;1.80;99.90;;;;;;5041212;28;20539;-58
2021/03/09 08:00:57;;;;;;;8.07;5.83;;;1.80;99.90;;;;;;5036634;28;20488;-58
2021/03/09 08:03:26;;;;;;;9.17;5.93;;;1.80;99.90;;;;;;5029289;28;20563;-57
2021/03/09 08:05:57;;;;;;;10.90;6.37;;;1.80;99.90;;;;;;5037628;28;20495;-55
2021/03/09 08:08:44;;;;;;;9.83;6.40;;;1.80;99.90;;;;;;5039067;28;20526;-58
2021/03/09 08:11:37;;;;;;;10.87;6.70;;;1.80;99.90;;;;;;5037165;28;20492;-58
2021/03/09 08:14:22;;;;;;;11.73;8.13;;;1.90;99.90;;;;;;5019745;28;20477;-58
2021/03/09 08:16:50;;;;;;;9.40;7.13;;;1.90;99.90;;;;;;5019828;28;20544;-57
2021/03/09 08:19:40;;;;;;;9.00;7.00;;;1.90;99.90;;;;;;5009481;28;20559;-58
2021/03/09 08:22:09;;;;;;;11.80;7.77;;;1.90;99.90;;;;;;5013959;28;20827;-58
2021/03/09 08:24:56;;;;;;;10.07;7.50;;;1.90;99.90;;;;;;5017755;28;21068;-58
2021/03/09 08:27:41;;;;;;;9.73;7.50;;;1.80;99.90;;;;;;5028206;28;20468;-57
2021/03/09 08:30:30;;;;;;;11.73;7.63;;;1.80;99.90;;;;;;5032710;28;20544;-58
2021/03/09 08:33:30;;;;;;;11.43;7.40;;;1.80;99.90;;;;;;5060132;28;21006;-58
2021/03/09 08:35:58;;;;;;;10.17;7.03;;;1.80;99.90;;;;;;5048546;28;20485;-58
2021/03/09 08:38:29;;;;;;;11.80;7.47;;;1.80;99.90;;;;;;5039416;28;20844;-58
2021/03/09 08:41:17;;;;;;;10.87;7.53;;;1.90;99.90;;;;;;5039352;28;20496;-57
2021/03/09 08:44:17;;;;;;;10.33;7.80;;;1.80;99.90;;;;;;5033927;28;20885;-58
2021/03/09 08:46:56;;;;;;;13.57;7.47;;;1.80;99.90;;;;;;5047510;28;20572;-56
2021/03/09 08:49:51;;;;;;;9.80;6.97;;;1.80;99.90;;;;;;5024039;28;21034;-58
2021/03/09 08:52:46;;;;;;;11.80;7.70;;;1.80;99.90;;;;;;5030197;28;20550;-56
2021/03/09 08:55:14;;;;;;;11.13;7.07;;;1.80;99.90;;;;;;4995788;28;20486;-55
2021/03/09 08:57:41;;;;;;;9.00;6.80;;;1.80;99.90;;;;;;5028177;28;20900;-58
2021/03/09 09:00:12;;;;;;;13.70;8.10;;;1.80;99.90;;;;;;5026577;28;20526;-57
2021/03/09 09:03:07;;;;;;;14.53;7.67;;;1.80;99.90;;;;;;5041367;28;20721;-56
2021/03/09 09:05:35;;;;;;;12.00;7.57;;;1.80;99.90;;;;;;5036332;28;20558;-57
2021/03/09 09:08:03;;;;;;;11.53;8.03;;;1.80;99.90;;;;;;5024243;28;20484;-58
2021/03/09 09:10:32;;;;;;;12.13;7.30;;;1.80;99.90;;;;;;5033028;28;20475;-58
2021/03/09 09:12:59;;;;;;;11.30;8.07;;;1.90;99.90;;;;;;5043381;28;20888;-57
2021/03/09 09:15:28;;;;;;;10.87;7.83;;;1.90;99.90;;;;;;5036219;28;20475;-58
2021/03/09 09:17:59;;;;;;;12.83;7.93;;;1.80;99.90;;;;;;5027111;28;20531;-57
2021/03/09 09:20:33;;;;;;;11.60;8.00;;;1.80;99.90;;;;;;5038769;28;21073;-56
2021/03/09 09:23:14;;;;;;;11.30;8.93;;;1.80;99.90;;;;;;5045637;28;20566;-58
2021/03/09 09:25:45;;;;;;;12.33;8.17;;;1.80;99.90;;;;;;5040861;28;21024;-57
2021/03/09 09:28:22;;;;;;;12.40;8.10;;;1.80;99.90;;;;;;5027397;28;20880;-58
2021/03/09 09:30:49;;;;;;;10.47;8.20;;;1.90;99.90;;;;;;5024594;28;20978;-58
2021/03/09 09:33:21;;;;;;;12.30;7.67;;;1.90;99.90;;;;;;5023785;28;20547;-57
2021/03/09 09:35:49;;;;;;;11.60;8.03;;;1.90;99.90;;;;;;5022840;28;20487;-58
2021/03/09 09:38:20;;;;;;;14.77;8.93;;;1.90;99.90;;;;;;5023240;28;21055;-58
2021/03/09 09:40:51;;;;;;;12.33;8.57;;;1.90;99.90;;;;;;5024741;28;20490;-56
2021/03/09 09:43:20;;;;;;;13.17;8.40;;;1.90;99.90;;;;;;5020347;28;20607;-58
2021/03/09 09:45:51;;;;;;;10.33;7.63;;;1.90;99.90;;;;;;5023009;28;20511;-57
2021/03/09 09:48:22;;;;;;;11.60;8.23;;;1.90;99.90;;;;;;5028451;28;20555;-58
2021/03/09 09:50:52;;;;;;;9.33;7.77;;;1.90;99.90;;;;;;5039706;28;20842;-57
2021/03/09 09:53:30;;;;;;;9.97;8.03;;;2.00;99.90;;;;;;5047125;28;20928;-56
2021/03/09 09:56:00;;;;;;;13.63;9.00;;;1.90;99.90;;;;;;5046231;28;20508;-57
2021/03/09 09:58:43;;;;;;;14.57;9.20;;;1.90;99.90;;;;;;5045823;28;20561;-58
2021/03/09 10:01:11;;;;;;;12.67;8.20;;;1.90;99.90;;;;;;5052404;28;20522;-58
2021/03/09 10:03:55;;;;;;;12.70;8.37;;;2.00;99.90;;;;;;5042272;28;20476;-58
2021/03/09 10:06:25;;;;;;;11.57;7.97;;;1.90;99.90;;;;;;5033743;28;20534;-58
2021/03/09 10:08:53;;;;;;;11.40;7.47;;;1.90;99.90;;;;;;5029046;28;20475;-58
2021/03/09 10:11:22;;;;;;;12.70;8.37;;;1.90;99.90;;;;;;5044289;28;20569;-58
2021/03/09 10:14:03;;;;;;;12.03;7.67;;;1.90;99.90;;;;;;5040064;28;20551;-54
2021/03/09 10:16:41;;;;;;;12.57;7.93;;;1.90;99.90;;;;;;5030102;28;20837;-57
2021/03/09 10:19:15;;;;;;;15.00;8.93;;;1.90;99.90;;;;;;5013127;28;20944;-58
2021/03/09 10:21:43;;;;;;;12.73;8.83;;;1.90;99.90;;;;;;5020203;28;20581;-57
2021/03/09 10:24:21;;;;;;;12.97;8.63;;;1.90;99.90;;;;;;5007515;28;20497;-56
2021/03/09 10:26:51;;;;;;;11.17;8.83;;;1.80;99.90;;;;;;5007595;28;20833;-58
2021/03/09 10:29:20;;;;;;;11.93;8.90;;;1.90;99.90;;;;;;5010206;28;21211;-55
2021/03/09 10:31:51;;;;;;;13.77;8.97;;;2.00;99.90;;;;;;5050867;28;20498;-55
2021/03/09 10:34:20;;;;;;;13.97;9.77;;;1.90;99.90;;;;;;5023945;28;20923;-58
2021/03/09 10:36:51;;;;;;;14.00;9.67;;;1.90;99.90;;;;;;5024736;28;20487;-56
2021/03/09 10:39:20;;;;;;;14.77;9.30;;;2.00;99.90;;;;;;5027367;28;20607;-56
2021/03/09 10:41:49;;;;;;;15.57;9.60;;;2.00;99.90;;;;;;5029976;28;21011;-58
2021/03/09 10:44:34;;;;;;;19.13;11.73;;;2.00;99.90;;;;;;5030554;28;20513;-57
2021/03/09 10:47:05;;;;;;;14.27;10.30;;;1.90;99.90;;;;;;5033582;28;20570;-58
2021/03/09 10:49:34;;;;;;;16.23;10.70;;;2.00;99.90;;;;;;5035620;28;20931;-56
2021/03/09 10:52:04;;;;;;;13.87;9.90;;;2.00;99.90;;;;;;5038326;28;20480;-58
2021/03/09 10:54:33;;;;;;;14.30;9.77;;;2.00;99.90;;;;;;5034290;28;21100;-58
2021/03/09 10:57:05;;;;;;;15.17;10.77;;;2.00;99.90;;;;;;5039094;28;20563;-58
2021/03/09 10:59:32;;;;;;;15.53;11.13;;;2.00;99.90;;;;;;5035487;28;21052;-58
2021/03/09 11:02:00;;;;;;;16.33;11.20;;;2.00;99.90;;;;;;5038499;28;20557;-57
2021/03/09 11:04:28;;;;;;;15.17;10.73;;;2.00;99.90;;;;;;5037275;28;20577;-55
2021/03/09 11:06:55;;;;;;;15.40;10.93;;;2.00;99.90;;;;;;5037609;28;20468;-58
2021/03/09 11:09:26;;;;;;;19.17;11.47;;;2.00;99.90;;;;;;5039428;28;21003;-58
2021/03/09 11:11:54;;;;;;;16.27;11.03;;;2.00;99.90;;;;;;5038095;28;20883;-57
2021/03/09 11:14:22;;;;;;;16.10;11.17;;;2.00;99.90;;;;;;5038423;28;20616;-56
2021/03/09 11:16:50;;;;;;;16.90;11.17;;;2.00;99.90;;;;;;5033136;28;20931;-59
2021/03/09 11:19:17;;;;;;;17.40;12.30;;;2.10;99.90;;;;;;5005187;28;20489;-59
2021/03/09 11:21:45;;;;;;;19.03;12.00;;;2.10;99.90;;;;;;5002174;28;20989;-59
2021/03/09 11:24:12;;;;;;;16.90;11.90;;;2.10;99.90;;;;;;5014827;28;20562;-59
2021/03/09 11:26:39;;;;;;;17.10;11.97;;;2.10;99.90;;;;;;5026631;28;20538;-59
2021/03/09 11:29:07;;;;;;;19.27;12.03;;;2.10;99.90;;;;;;5029000;28;21963;-59
2021/03/09 11:31:35;;;;;;;19.20;12.13;;;2.10;99.90;;;;;;5028284;28;20471;-58
2021/03/09 11:34:03;;;;;;;19.23;12.10;;;2.10;99.90;;;;;;5028529;28;20478;-59
2021/03/09 11:36:30;;;;;;;21.87;13.43;;;2.10;99.90;;;;;;5032174;28;20500;-57
2021/03/09 11:38:58;;;;;;;20.37;12.57;;;2.10;99.90;;;;;;5017793;28;20533;-58
2021/03/09 11:41:25;;;;;;;18.57;11.87;;;2.10;99.90;;;;;;5020695;28;20505;-59
2021/03/09 11:43:53;;;;;;;18.20;11.83;;;2.10;99.90;;;;;;5021513;28;20552;-59
2021/03/09 11:46:20;;;;;;;12.80;9.95;;;2.20;99.90;;;;;;968721;28;10002190;-58
2021/03/09 11:48:49;;;;;;;19.20;11.87;;;2.10;99.90;;;;;;5031874;28;20328;-59
2021/03/09 11:51:16;;;;;;;17.13;11.97;;;2.20;99.90;;;;;;5048619;28;20473;-59
2021/03/09 11:53:43;;;;;;;19.43;12.20;;;2.20;99.90;;;;;;5053162;28;20520;-57
2021/03/09 11:56:11;;;;;;;17.87;11.87;;;2.20;99.90;;;;;;5036546;28;20630;-59
2021/03/09 11:58:38;;;;;;;18.80;12.73;;;2.20;99.90;;;;;;5015297;28;20509;-59
2021/03/09 12:01:05;;;;;;;16.03;11.30;;;2.20;99.90;;;;;;5021423;28;20553;-58
2021/03/09 12:03:33;;;;;;;16.20;11.33;;;2.20;99.90;;;;;;5024903;28;21005;-59
2021/03/09 12:06:01;;;;;;;17.73;11.67;;;2.20;99.90;;;;;;5033695;28;21061;-58
2021/03/09 12:08:28;;;;;;;16.93;12.13;;;2.20;99.90;;;;;;5039652;28;20508;-59
2021/03/09 12:10:56;;;;;;;18.13;12.47;;;2.20;99.90;;;;;;5044062;28;20541;-58
2021/03/09 12:13:23;;;;;;;18.43;11.93;;;2.20;99.90;;;;;;5038367;28;20554;-58
2021/03/09 12:15:51;;;;;;;16.90;11.17;;;2.20;99.90;;;;;;5039139;28;20555;-58
2021/03/09 12:18:19;;;;;;;16.37;11.67;;;2.20;99.90;;;;;;5040995;28;20477;-59
2021/03/09 12:20:46;;;;;;;17.63;12.43;;;2.20;99.90;;;;;;5036988;28;20520;-59
2021/03/09 12:23:14;;;;;;;15.67;11.77;;;2.20;99.90;;;;;;5037756;28;20492;-58
2021/03/09 12:25:42;;;;;;;18.20;12.07;;;2.20;99.90;;;;;;5040708;28;20530;-60
2021/03/09 12:28:09;;;;;;;15.63;10.93;;;2.30;99.90;;;;;;5039672;28;21001;-59
2021/03/09 12:30:37;;;;;;;17.23;11.53;;;2.30;99.90;;;;;;5038901;28;21005;-59
2021/03/09 12:33:05;;;;;;;17.10;11.60;;;2.30;99.90;;;;;;5040638;28;20480;-59
2021/03/09 12:35:33;;;;;;;16.60;11.77;;;2.30;99.90;;;;;;5031902;28;20535;-59
2021/03/09 12:38:00;;;;;;;17.97;11.93;;;2.30;99.90;;;;;;5032566;28;21030;-59
2021/03/09 12:40:28;;;;;;;16.70;11.73;;;2.30;99.90;;;;;;5027209;28;20494;-59
2021/03/09 12:42:55;;;;;;;16.17;11.43;;;2.30;99.90;;;;;;5035522;28;20940;-59
2021/03/09 12:45:23;;;;;;;18.47;11.50;;;2.40;99.90;;;;;;5036279;28;20515;-59
2021/03/09 12:47:51;;;;;;;16.43;10.30;;;2.40;99.90;;;;;;5050801;28;20567;-59
2021/03/09 12:50:25;;;;;;;15.60;11.00;;;2.40;99.90;;;;;;5055218;28;20487;-59
2021/03/09 12:52:52;;;;;;;18.97;11.27;;;2.40;99.90;;;;;;5048734;28;20984;-58
2021/03/09 12:55:20;;;;;;;16.77;11.63;;;2.40;99.90;;;;;;5046165;28;20496;-58
2021/03/09 12:57:48;;;;;;;18.00;11.73;;;2.40;99.90;;;;;;5043630;28;20479;-59
2021/03/09 13:00:17;;;;;;;20.27;12.43;;;2.40;99.90;;;;;;5035630;28;20496;-59
2021/03/09 13:02:44;;;;;;;18.63;11.63;;;2.40;99.90;;;;;;5037662;28;20482;-60
2021/03/09 13:05:12;;;;;;;18.73;12.57;;;2.50;99.90;;;;;;5033084;28;20566;-60
2021/03/09 13:07:40;;;;;;;17.13;11.33;;;2.50;99.90;;;;;;5044975;28;20837;-60
2021/03/09 13:10:11;;;;;;;17.80;11.80;;;2.50;99.90;;;;;;5038783;28;20512;-60
2021/03/09 13:12:38;;;;;;;18.27;12.20;;;2.50;99.90;;;;;;5042705;28;20894;-59